FsMex.com
 
FOTOS - FOROS

Retroceder   FsMex.com > Aprendizaje > Estudiantes

Respuesta
 
Herramientas Desplegado
  #1  
Antiguo 07-jun-2018, 14:04
DASH8 DASH8 está desconectado
 
Fecha de Ingreso: julio-2017
Mensajes: 60
Poder de Credibilidad: 1
DASH8 is on a distinguished road
Reputación: 16
Question Metar mmmx

Hola a todos! me encontre esto y la verdad no se que a que se refiere el RMK 907 y 911 si alguien sabe le agredecere!


MMMX 071744Z 03005KT 5SM SCT020 24/07 A3029 NOSIG RMK SLP052 57011 911 8/100 HZY
MMMX 071647Z 23005KT 4SM SCT020 23/09 A3030 NOSIG RMK 8/100 HZY
MMMX 071646Z 23005KT 4SM SCT020 23/10 A3030 NOSIG RMK 8/100 HZY
MMMX 071553Z 08003KT 4SM FEW020 FEW230 21/10 A3031 NOSIG RMK 8/101 HZY
MMMX 071452Z 09005KT 5SM FEW230 19/10 A3031 NOSIG RMK SLP083 52012 907 8/001 HZY CU
MMMX 071343Z 09003KT 5SM SCT230 18/10 A3031 NOSIG RMK 8/001 HZY CU FRMG 020
Responder Citando
  #2  
Antiguo 11-jun-2018, 09:55
Avatar de Patlani
Patlani Patlani está desconectado
 
Fecha de Ingreso: enero-2014
Ubicación: Tijuana
Mensajes: 54
Poder de Credibilidad: 3
Patlani is on a distinguished road
Reputación: 45
Predeterminado

El grupo de los 9xx en la sección de RMK significa los cambios en la presión barométrica en las últimas 24 horas en incrementos de 0.1 hPa, similar al grupo de los 5axxx que lo precede en el METAR a excepción de que estos son reportes seriados de cada tres hora. En este caso, tomando el ejemplo de 911, este signfica que hubo un cambio de 1.1 de hPa en las 24 horas lo cual se correlaciona con el NOSIG del METAR.
Responder Citando
  #3  
Antiguo 14-jun-2018, 12:32
DASH8 DASH8 está desconectado
 
Fecha de Ingreso: julio-2017
Mensajes: 60
Poder de Credibilidad: 1
DASH8 is on a distinguished road
Reputación: 16
Predeterminado

Cita:
Iniciado por Patlani Ver Mensaje
El grupo de los 9xx en la sección de RMK significa los cambios en la presión barométrica en las últimas 24 horas en incrementos de 0.1 hPa, similar al grupo de los 5axxx que lo precede en el METAR a excepción de que estos son reportes seriados de cada tres hora. En este caso, tomando el ejemplo de 911, este signfica que hubo un cambio de 1.1 de hPa en las 24 horas lo cual se correlaciona con el NOSIG del METAR.


Muchas gracias si me sacaste de la duda ya investigue mas y con la info que me diste logre encontrarlo, gracias.
Responder Citando
Respuesta

Herramientas
Desplegado

Normas de Publicación
No puedes crear nuevos temas
No puedes responder temas
No puedes subir archivos adjuntos
No puedes editar tus mensajes

Los Códigos BB están Activado
Las Caritas están Activado
[IMG] está Activado
El Código HTML está Desactivado

Ir al Foro

Temas Similares
Tema Autor Foro Respuestas Último mensaje
Ayuda con los Metar carlos MMGL Estudiantes 3 26-abr-2015 13:50
Duda metar Cap.Montes Estudiantes 1 15-ago-2014 00:40
metar slp capsamper Aviación General 1 28-sep-2013 22:15
Decodificación de Metar MMMX Lukz Foro de tips, reviews, recomendaciones y demás 11 15-sep-2010 00:06
METAR J_BOEING_007 Aviación Real 2 07-sep-2005 17:06


La franja horaria es GMT -5. Ahora son las 18:35.


Powered by vBulletin® Version 3.8.11
Copyright ©2000 - 2018, Jelsoft Enterprises Ltd.
Traducido por mcloud de vBhispano.com